createdAt,value
2018-03-31T00:00:48.518Z,32.80
2018-03-31T00:03:14.722Z,33.70
2018-03-31T00:05:40.926Z,34.05
2018-03-31T00:08:07.159Z,33.28
2018-03-31T00:10:33.376Z,34.85
2018-03-31T00:12:59.652Z,33.22
2018-03-31T00:15:25.832Z,33.40
2018-03-31T00:17:52.055Z,34.83
2018-03-31T00:20:18.274Z,34.20
2018-03-31T00:22:44.481Z,33.17
2018-03-31T00:25:10.697Z,33.67
2018-03-31T00:27:36.937Z,34.77
2018-03-31T00:30:03.208Z,33.00
2018-03-31T00:32:30.406Z,34.13
2018-03-31T00:34:56.668Z,33.28
2018-03-31T00:37:23.519Z,34.80
2018-03-31T00:39:49.806Z,33.00
2018-03-31T00:42:16.761Z,34.10
2018-03-31T00:44:42.980Z,34.95
2018-03-31T00:47:09.179Z,33.13
2018-03-31T00:49:35.402Z,31.12
2018-03-31T00:52:01.606Z,31.73
2018-03-31T00:54:28.533Z,31.65
2018-03-31T00:56:54.716Z,32.10
2018-03-31T00:59:20.920Z,32.20
2018-03-31T01:01:47.118Z,32.60
2018-03-31T01:04:13.336Z,33.30
2018-03-31T01:06:39.543Z,34.17
2018-03-31T01:09:07.371Z,33.10
2018-03-31T01:11:33.588Z,33.20
2018-03-31T01:13:59.772Z,34.60
2018-03-31T01:16:25.993Z,34.67
2018-03-31T01:18:53.280Z,35.03
2018-03-31T01:21:19.485Z,34.60
2018-03-31T01:23:45.715Z,34.72
2018-03-31T01:26:12.925Z,33.47
2018-03-31T01:28:39.877Z,35.13
2018-03-31T01:31:06.071Z,35.90
2018-03-31T01:33:33.009Z,36.50
2018-03-31T01:35:59.209Z,35.70
2018-03-31T01:38:25.409Z,36.10
2018-03-31T01:40:52.352Z,35.15
2018-03-31T01:43:18.551Z,36.15
2018-03-31T01:45:48.192Z,35.92
2018-03-31T01:48:14.392Z,34.88
2018-03-31T01:50:40.576Z,34.75
2018-03-31T01:53:06.807Z,36.00
2018-03-31T01:55:34.370Z,35.80
2018-03-31T01:58:00.576Z,36.70
2018-03-31T02:00:26.773Z,35.80
2018-03-31T02:02:53.750Z,34.65
2018-03-31T02:05:20.688Z,36.22
2018-03-31T02:07:46.915Z,35.55
2018-03-31T02:10:13.115Z,36.70
2018-03-31T02:12:40.087Z,35.75
2018-03-31T02:15:07.101Z,35.30
2018-03-31T02:17:33.318Z,34.63
2018-03-31T02:19:59.577Z,34.58
2018-03-31T02:22:25.784Z,34.60
2018-03-31T02:24:52.001Z,34.60
2018-03-31T02:27:20.209Z,34.22
2018-03-31T02:29:46.428Z,35.80
2018-03-31T02:32:12.626Z,34.97
2018-03-31T02:34:39.485Z,36.63
2018-03-31T02:37:05.703Z,37.08
2018-03-31T02:39:31.898Z,36.20
2018-03-31T02:41:58.837Z,36.42
2018-03-31T02:44:25.054Z,36.25
2018-03-31T02:46:52.131Z,38.70
2018-03-31T02:49:18.350Z,38.47
2018-03-31T02:51:44.578Z,39.20
2018-03-31T02:54:10.809Z,37.85
2018-03-31T02:56:37.006Z,39.33
2018-03-31T02:59:03.260Z,40.20
2018-03-31T03:01:29.530Z,39.03
2018-03-31T03:03:55.760Z,37.55
2018-03-31T03:06:21.964Z,36.92
2018-03-31T03:08:48.172Z,37.88
2018-03-31T03:11:15.131Z,36.97
2018-03-31T03:13:41.364Z,37.43
2018-03-31T03:16:08.165Z,38.90
2018-03-31T03:18:35.143Z,37.83
2018-03-31T03:21:01.382Z,38.35
2018-03-31T03:23:28.345Z,38.08
2018-03-31T03:25:55.323Z,38.05
2018-03-31T03:28:21.577Z,37.38
2018-03-31T03:30:47.799Z,37.55
2018-03-31T03:33:14.001Z,37.03
2018-03-31T03:35:40.217Z,37.00
2018-03-31T03:38:07.164Z,38.22
2018-03-31T03:40:33.370Z,37.30
2018-03-31T03:43:00.124Z,38.88
2018-03-31T03:45:27.088Z,36.63
2018-03-31T03:47:54.066Z,37.00
2018-03-31T03:50:20.272Z,36.53
2018-03-31T03:52:46.470Z,36.28
2018-03-31T03:55:12.697Z,35.10
2018-03-31T03:57:39.618Z,36.20
2018-03-31T04:00:06.814Z,34.00
2018-03-31T04:02:33.042Z,36.25
2018-03-31T04:04:59.278Z,36.30
2018-03-31T04:07:25.570Z,36.63
2018-03-31T04:09:52.573Z,36.33
2018-03-31T04:12:18.780Z,34.65
2018-03-31T04:14:45.014Z,38.03
2018-03-31T04:17:11.200Z,34.83
2018-03-31T04:19:38.152Z,35.47
2018-03-31T04:22:05.840Z,33.47
2018-03-31T04:24:32.063Z,36.45
2018-03-31T04:26:58.271Z,34.55
2018-03-31T04:29:24.493Z,34.88
2018-03-31T04:31:50.685Z,34.35
2018-03-31T04:34:16.869Z,36.40
2018-03-31T04:36:43.072Z,35.55
2018-03-31T04:39:09.294Z,37.78
2018-03-31T04:41:35.506Z,34.40
2018-03-31T04:44:01.742Z,35.55
2018-03-31T04:46:27.962Z,36.40
2018-03-31T04:48:54.874Z,35.80
2018-03-31T04:51:21.144Z,35.13
2018-03-31T04:53:48.390Z,35.15
2018-03-31T04:56:14.582Z,36.95
2018-03-31T04:58:40.793Z,37.20
2018-03-31T05:01:07.702Z,34.20
2018-03-31T05:03:33.989Z,36.63
2018-03-31T05:06:00.283Z,35.63
2018-03-31T05:08:26.569Z,38.10
2018-03-31T05:10:52.770Z,36.75
2018-03-31T05:13:19.016Z,37.58
2018-03-31T05:15:45.307Z,38.03
2018-03-31T05:18:11.532Z,41.33
2018-03-31T05:20:37.744Z,38.70
2018-03-31T05:23:04.680Z,37.58
2018-03-31T05:25:30.944Z,37.15
2018-03-31T05:27:57.191Z,39.30
2018-03-31T05:30:23.393Z,39.65
2018-03-31T05:32:49.616Z,40.80
2018-03-31T05:35:16.562Z,39.22
2018-03-31T05:37:42.774Z,40.28
2018-03-31T05:40:09.038Z,42.75
2018-03-31T05:42:35.246Z,42.83
2018-03-31T05:45:01.520Z,42.45
2018-03-31T05:47:27.745Z,44.22
2018-03-31T05:49:53.969Z,41.22
2018-03-31T05:52:20.350Z,44.53
2018-03-31T05:54:46.554Z,42.10
2018-03-31T05:57:12.810Z,39.92
2018-03-31T05:59:40.056Z,41.90
2018-03-31T06:02:06.270Z,46.20
2018-03-31T06:04:32.626Z,42.92
2018-03-31T06:06:58.856Z,42.90
2018-03-31T06:09:25.075Z,39.20
2018-03-31T06:11:51.287Z,38.67
2018-03-31T06:14:17.545Z,38.60
2018-03-31T06:16:43.799Z,40.45
2018-03-31T06:19:10.011Z,38.60
2018-03-31T06:21:36.222Z,38.58
2018-03-31T06:24:02.454Z,39.80
2018-03-31T06:26:28.842Z,38.80
2018-03-31T06:28:55.074Z,43.67
2018-03-31T06:31:21.293Z,43.97
2018-03-31T06:33:47.470Z,45.77
2018-03-31T06:36:13.680Z,45.58
2018-03-31T06:38:40.638Z,41.80
2018-03-31T06:41:07.114Z,44.00
2018-03-31T06:43:34.188Z,45.43
2018-03-31T06:46:01.260Z,48.40
2018-03-31T06:48:29.262Z,46.92
2018-03-31T06:50:55.462Z,48.47
2018-03-31T06:53:21.726Z,48.33
2018-03-31T06:55:48.692Z,46.40
2018-03-31T06:58:15.692Z,45.10
2018-03-31T07:00:41.923Z,46.55
2018-03-31T07:03:08.198Z,51.70
2018-03-31T07:05:34.419Z,57.60
2018-03-31T07:08:01.423Z,52.67
2018-03-31T07:10:27.805Z,53.42
2018-03-31T07:12:54.175Z,53.50
2018-03-31T07:15:20.473Z,52.28
2018-03-31T07:17:46.723Z,52.60
2018-03-31T07:20:13.721Z,57.73
2018-03-31T07:22:39.938Z,54.22
2018-03-31T07:25:06.896Z,57.40
2018-03-31T07:27:33.873Z,61.80
2018-03-31T07:30:00.090Z,52.20
2018-03-31T07:32:27.200Z,51.75
2018-03-31T07:34:53.556Z,55.95
2018-03-31T07:37:20.002Z,57.28
2018-03-31T07:39:46.954Z,57.40
2018-03-31T07:42:13.385Z,59.45
2018-03-31T07:44:39.747Z,67.45
2018-03-31T07:47:05.987Z,64.60
2018-03-31T07:49:32.208Z,66.03
2018-03-31T07:51:58.611Z,58.63
2018-03-31T07:54:24.829Z,58.38
2018-03-31T07:56:51.109Z,56.50
2018-03-31T07:59:17.371Z,55.03
2018-03-31T08:01:43.638Z,53.97
2018-03-31T08:04:10.599Z,57.07
2018-03-31T08:06:36.816Z,54.88
2018-03-31T08:09:03.122Z,54.70
2018-03-31T08:11:29.361Z,53.53
2018-03-31T08:13:56.303Z,52.45
2018-03-31T08:16:22.502Z,55.47
2018-03-31T08:18:48.749Z,57.60
2018-03-31T08:21:14.979Z,55.27
2018-03-31T08:23:41.186Z,52.38
2018-03-31T08:26:07.412Z,57.58
2018-03-31T08:28:33.642Z,55.15
2018-03-31T08:31:00.674Z,54.50
2018-03-31T08:33:26.974Z,56.95
2018-03-31T08:35:53.224Z,55.90
2018-03-31T08:38:19.578Z,53.17
2018-03-31T08:40:46.585Z,55.95
2018-03-31T08:43:12.862Z,52.35
2018-03-31T08:45:39.101Z,60.83
2018-03-31T08:48:05.307Z,54.85
2018-03-31T08:50:31.501Z,56.40
2018-03-31T08:52:57.710Z,55.55
2018-03-31T08:55:23.902Z,58.30
2018-03-31T08:57:50.111Z,54.88
2018-03-31T09:00:16.558Z,67.45
2018-03-31T09:02:43.497Z,57.28
2018-03-31T09:05:09.722Z,58.00
2018-03-31T09:07:36.877Z,54.22
2018-03-31T09:10:03.689Z,58.22
2018-03-31T09:12:30.686Z,54.17
2018-03-31T09:14:57.137Z,81.57
2018-03-31T09:17:23.364Z,62.27
2018-03-31T09:19:49.742Z,59.28
2018-03-31T09:22:16.718Z,55.78
2018-03-31T09:24:44.450Z,65.00
2018-03-31T09:27:09.188Z,52.17
2018-03-31T09:29:36.177Z,52.13
2018-03-31T09:32:03.786Z,48.65
2018-03-31T09:34:30.328Z,50.65
2018-03-31T09:36:56.686Z,48.53
2018-03-31T09:39:23.001Z,49.97
2018-03-31T09:41:49.352Z,46.42
2018-03-31T09:44:18.791Z,68.72
2018-03-31T09:46:45.829Z,56.40
2018-03-31T09:49:12.085Z,49.60
2018-03-31T09:51:38.399Z,45.63
2018-03-31T09:54:04.664Z,46.20
2018-03-31T09:56:30.987Z,46.30
2018-03-31T09:58:57.242Z,47.42
2018-03-31T10:01:23.453Z,44.37
2018-03-31T10:03:49.799Z,42.42
2018-03-31T10:06:16.093Z,42.58
2018-03-31T10:08:42.446Z,38.88
2018-03-31T10:11:09.424Z,45.40
2018-03-31T10:13:35.770Z,40.97
2018-03-31T10:16:02.614Z,44.40
2018-03-31T10:18:28.889Z,41.08
2018-03-31T10:20:55.160Z,38.75
2018-03-31T10:23:21.550Z,39.10
2018-03-31T10:25:47.856Z,38.78
2018-03-31T10:28:14.097Z,38.58
2018-03-31T10:30:41.169Z,39.00
2018-03-31T10:33:07.437Z,40.80
2018-03-31T10:35:33.627Z,42.30
2018-03-31T10:38:01.770Z,42.08
2018-03-31T10:40:27.999Z,40.78
2018-03-31T10:42:54.986Z,42.05
2018-03-31T10:45:21.217Z,44.75
2018-03-31T10:47:47.461Z,42.00
2018-03-31T10:50:13.671Z,54.92
2018-03-31T10:52:39.891Z,46.65
2018-03-31T10:55:06.202Z,41.20
2018-03-31T10:57:32.466Z,38.97
2018-03-31T10:59:59.408Z,39.25
2018-03-31T11:02:25.643Z,34.58
2018-03-31T11:04:51.838Z,33.20
2018-03-31T11:07:18.051Z,33.42
2018-03-31T11:09:44.238Z,30.33
2018-03-31T11:12:10.467Z,31.12
2018-03-31T11:14:36.765Z,25.83
2018-03-31T11:17:03.123Z,25.88
2018-03-31T11:19:29.354Z,26.17
2018-03-31T11:21:56.327Z,26.15
2018-03-31T11:24:23.410Z,27.45
2018-03-31T11:26:49.767Z,26.33
2018-03-31T11:29:15.984Z,27.87
2018-03-31T11:31:46.101Z,26.15
2018-03-31T11:34:13.018Z,24.60
2018-03-31T11:36:39.241Z,22.85
2018-03-31T11:39:05.786Z,20.95
2018-03-31T11:41:32.013Z,21.00
2018-03-31T11:43:58.330Z,21.10
2018-03-31T11:46:25.405Z,18.30
2018-03-31T11:48:52.368Z,19.60
2018-03-31T11:51:18.638Z,18.80
2018-03-31T11:53:44.878Z,18.20
2018-03-31T11:56:11.128Z,17.40
2018-03-31T11:58:37.362Z,17.70
2018-03-31T12:01:04.445Z,19.98
2018-03-31T12:03:31.439Z,15.45
2018-03-31T12:05:57.972Z,19.95
2018-03-31T12:08:25.049Z,26.23
2018-03-31T12:10:52.008Z,22.85
2018-03-31T12:13:19.081Z,21.52
2018-03-31T12:15:46.251Z,17.05
2018-03-31T12:18:13.200Z,15.25
2018-03-31T12:20:39.428Z,14.68
2018-03-31T12:23:05.707Z,13.15
2018-03-31T12:25:33.035Z,14.20
2018-03-31T12:27:59.972Z,14.80
2018-03-31T12:30:26.173Z,27.52
2018-03-31T12:32:53.160Z,14.02
2018-03-31T12:35:19.364Z,13.07
2018-03-31T12:37:45.574Z,13.30
2018-03-31T12:40:11.834Z,12.43
2018-03-31T12:42:38.064Z,14.23
2018-03-31T12:45:04.289Z,13.30
2018-03-31T12:47:30.593Z,19.02
2018-03-31T12:49:57.518Z,26.25
2018-03-31T12:52:23.752Z,18.27
2018-03-31T12:54:49.992Z,28.45
2018-03-31T12:57:16.323Z,15.27
2018-03-31T12:59:42.538Z,11.88
2018-03-31T13:02:08.768Z,11.60
2018-03-31T13:04:35.033Z,15.50
2018-03-31T13:07:01.312Z,17.60
2018-03-31T13:09:28.699Z,15.88
2018-03-31T13:11:55.667Z,15.38
2018-03-31T13:14:23.175Z,12.93
2018-03-31T13:16:49.412Z,12.50
2018-03-31T13:19:15.629Z,13.00
2018-03-31T13:21:42.008Z,13.60
2018-03-31T13:24:08.222Z,13.52
2018-03-31T13:26:34.451Z,13.93
2018-03-31T13:29:00.658Z,13.40
2018-03-31T13:31:26.863Z,13.82
2018-03-31T13:33:53.084Z,12.68
2018-03-31T13:36:19.327Z,13.75
2018-03-31T13:38:46.154Z,13.93
2018-03-31T13:41:13.133Z,14.70
2018-03-31T13:43:40.118Z,14.52
2018-03-31T13:46:06.466Z,14.80
2018-03-31T13:48:32.720Z,15.93
2018-03-31T13:50:59.658Z,15.73
2018-03-31T13:53:25.887Z,15.38
2018-03-31T13:55:54.282Z,14.90
2018-03-31T13:58:20.548Z,14.60
2018-03-31T14:00:46.771Z,14.90
2018-03-31T14:03:12.981Z,14.30
2018-03-31T14:05:40.063Z,14.80
2018-03-31T14:08:06.314Z,15.90
2018-03-31T14:10:33.290Z,15.00
2018-03-31T14:12:59.511Z,15.45
2018-03-31T14:15:25.743Z,15.93
2018-03-31T14:17:52.008Z,15.02
2018-03-31T14:20:18.252Z,16.10
2018-03-31T14:22:44.495Z,15.35
2018-03-31T14:25:10.743Z,14.90
2018-03-31T14:27:36.967Z,15.07
2018-03-31T14:30:03.212Z,14.50
2018-03-31T14:32:29.426Z,14.18
2018-03-31T14:34:56.511Z,15.02
2018-03-31T14:37:23.585Z,13.75
2018-03-31T14:39:50.038Z,18.40
2018-03-31T14:42:16.278Z,15.88
2018-03-31T14:44:43.290Z,17.02
2018-03-31T14:47:09.536Z,19.20
2018-03-31T14:49:35.775Z,21.60
2018-03-31T14:52:02.074Z,16.65
2018-03-31T14:54:28.292Z,19.20
2018-03-31T14:56:54.540Z,19.30
2018-03-31T14:59:20.867Z,17.85
2018-03-31T15:01:47.866Z,17.45
2018-03-31T15:04:14.125Z,18.75
2018-03-31T15:06:40.441Z,18.30
2018-03-31T15:09:07.421Z,19.05
2018-03-31T15:11:33.621Z,21.95
2018-03-31T15:13:59.921Z,19.10
2018-03-31T15:16:26.115Z,20.33
2018-03-31T15:18:53.962Z,20.20
2018-03-31T15:21:22.313Z,20.92
2018-03-31T15:23:48.602Z,21.42
2018-03-31T15:26:15.566Z,19.93
2018-03-31T15:28:42.640Z,21.70
2018-03-31T15:31:08.870Z,21.45
2018-03-31T15:33:35.076Z,24.80
2018-03-31T15:36:01.318Z,22.08
2018-03-31T15:38:27.748Z,22.00
2018-03-31T15:40:54.722Z,23.55
2018-03-31T15:43:20.936Z,21.92
2018-03-31T15:45:47.174Z,22.73
2018-03-31T15:48:13.454Z,32.28
2018-03-31T15:50:39.652Z,30.65
2018-03-31T15:53:06.639Z,32.10
2018-03-31T15:55:33.615Z,28.40
2018-03-31T15:57:59.825Z,27.60
2018-03-31T16:00:26.769Z,32.35
2018-03-31T16:02:53.845Z,31.92
2018-03-31T16:05:20.913Z,27.52
2018-03-31T16:07:47.921Z,26.90
2018-03-31T16:10:14.137Z,36.60
2018-03-31T16:12:40.405Z,30.10
2018-03-31T16:15:06.634Z,34.50
2018-03-31T16:17:33.584Z,32.40
2018-03-31T16:20:00.561Z,30.48
2018-03-31T16:22:27.501Z,31.55
2018-03-31T16:24:53.719Z,33.38
2018-03-31T16:27:19.972Z,30.05
2018-03-31T16:29:46.192Z,35.22
2018-03-31T16:32:13.370Z,35.03
2018-03-31T16:34:39.650Z,38.97
2018-03-31T16:37:05.844Z,34.40
2018-03-31T16:39:32.843Z,32.35
2018-03-31T16:41:59.293Z,32.08
2018-03-31T16:44:25.545Z,32.38
2018-03-31T16:46:52.644Z,36.57
2018-03-31T16:49:18.865Z,36.78
2018-03-31T16:51:45.936Z,33.70
2018-03-31T16:54:12.897Z,32.20
2018-03-31T16:56:39.853Z,31.10
2018-03-31T16:59:06.226Z,31.52
2018-03-31T17:01:33.186Z,36.08
2018-03-31T17:04:00.207Z,34.92
2018-03-31T17:06:26.407Z,33.17
2018-03-31T17:08:53.352Z,33.53
2018-03-31T17:11:19.553Z,32.83
2018-03-31T17:13:45.764Z,32.83
2018-03-31T17:16:12.855Z,32.25
2018-03-31T17:18:39.066Z,32.60
2018-03-31T17:21:05.350Z,33.63
2018-03-31T17:23:32.427Z,36.42
2018-03-31T17:25:58.657Z,35.42
2018-03-31T17:28:25.630Z,33.58
2018-03-31T17:30:52.652Z,34.47
2018-03-31T17:33:18.926Z,33.65
2018-03-31T17:35:45.127Z,34.88
2018-03-31T17:38:11.345Z,35.10
2018-03-31T17:40:38.439Z,32.30
2018-03-31T17:43:05.468Z,32.35
2018-03-31T17:45:32.588Z,32.00
2018-03-31T17:47:59.549Z,34.00
2018-03-31T17:50:25.831Z,42.15
2018-03-31T17:52:52.359Z,35.90
2018-03-31T17:55:18.651Z,92.12
2018-03-31T17:57:44.923Z,41.05
2018-03-31T18:00:11.316Z,48.33
2018-03-31T18:02:37.573Z,31.20
2018-03-31T18:05:03.839Z,36.45
2018-03-31T18:07:30.051Z,32.38
2018-03-31T18:09:59.632Z,31.90
2018-03-31T18:12:25.949Z,39.80
2018-03-31T18:14:52.138Z,30.50
2018-03-31T18:17:18.355Z,28.15
2018-03-31T18:19:44.643Z,28.38
2018-03-31T18:22:10.884Z,30.30
2018-03-31T18:24:37.096Z,30.20
2018-03-31T18:27:04.060Z,36.92
2018-03-31T18:29:31.154Z,27.05
2018-03-31T18:31:58.803Z,30.10
2018-03-31T18:34:25.674Z,28.60
2018-03-31T18:36:52.255Z,27.23
2018-03-31T18:39:18.507Z,29.02
2018-03-31T18:41:44.760Z,27.80
2018-03-31T18:44:11.286Z,27.65
2018-03-31T18:46:38.285Z,29.77
2018-03-31T18:49:05.315Z,28.00
2018-03-31T18:51:33.955Z,27.50
2018-03-31T18:54:02.233Z,28.75
2018-03-31T18:56:29.230Z,28.40
2018-03-31T18:58:55.468Z,29.98
2018-03-31T19:01:22.495Z,28.38
2018-03-31T19:03:49.585Z,28.55
2018-03-31T19:06:16.678Z,30.25
2018-03-31T19:11:26.384Z,35.40
2018-03-31T19:13:54.460Z,37.08
2018-03-31T19:16:21.116Z,35.40
2018-03-31T19:18:47.406Z,34.97
2018-03-31T19:21:13.828Z,33.75
2018-03-31T19:23:40.238Z,34.53
2018-03-31T19:26:07.375Z,35.35
2018-03-31T19:28:33.707Z,33.42
2018-03-31T19:31:01.482Z,33.92
2018-03-31T19:33:28.385Z,33.45
2018-03-31T19:36:01.836Z,33.78
2018-03-31T19:38:29.074Z,32.00
2018-03-31T19:40:55.328Z,28.80
2018-03-31T19:43:21.561Z,28.70
2018-03-31T19:45:48.206Z,28.95
2018-03-31T19:48:14.475Z,28.85
2018-03-31T19:50:40.750Z,29.95
2018-03-31T19:53:06.997Z,31.77
2018-03-31T19:55:33.422Z,31.50
2018-03-31T19:58:00.274Z,30.97
2018-03-31T20:00:26.669Z,32.03
2018-03-31T20:02:53.600Z,31.87
2018-03-31T20:05:20.781Z,32.78
2018-03-31T20:07:48.260Z,33.17
2018-03-31T20:10:14.540Z,33.70
2018-03-31T20:12:40.966Z,37.15
2018-03-31T20:15:07.933Z,40.30
2018-03-31T20:17:34.261Z,41.25
2018-03-31T20:20:00.749Z,42.92
2018-03-31T20:22:29.364Z,45.17
2018-03-31T20:24:55.701Z,48.35
2018-03-31T20:27:22.992Z,48.92
2018-03-31T20:29:49.336Z,47.70
2018-03-31T20:32:15.843Z,49.90
2018-03-31T20:34:42.307Z,50.38
2018-03-31T20:37:09.521Z,52.08
2018-03-31T20:39:36.351Z,57.53
2018-03-31T20:42:03.458Z,55.97
2018-03-31T20:44:29.777Z,57.70
2018-03-31T20:46:56.017Z,59.20
2018-03-31T20:49:22.286Z,61.30
2018-03-31T20:51:49.243Z,59.78
2018-03-31T20:54:15.431Z,64.15
2018-03-31T20:56:41.620Z,63.45
2018-03-31T20:59:07.834Z,67.68
2018-03-31T21:01:34.790Z,65.72
2018-03-31T21:04:01.153Z,70.32
2018-03-31T21:06:27.359Z,70.47
2018-03-31T21:08:53.590Z,64.05
2018-03-31T21:11:19.796Z,64.87
2018-03-31T21:13:46.729Z,61.95
2018-03-31T21:16:12.953Z,59.20
2018-03-31T21:18:39.278Z,64.12
2018-03-31T21:21:05.629Z,59.05
2018-03-31T21:23:31.967Z,61.78
2018-03-31T21:25:59.049Z,62.25
2018-03-31T21:28:26.125Z,63.25
2018-03-31T21:30:52.320Z,64.25
2018-03-31T21:33:18.516Z,80.03
2018-03-31T21:35:45.499Z,65.37
2018-03-31T21:38:11.696Z,88.63
2018-03-31T21:40:37.890Z,73.82
2018-03-31T21:43:04.079Z,81.93
2018-03-31T21:45:31.056Z,100.60
2018-03-31T21:47:57.277Z,86.67
2018-03-31T21:50:23.534Z,84.20
2018-03-31T21:52:49.749Z,95.40
2018-03-31T21:55:19.959Z,99.22
2018-03-31T21:57:46.197Z,100.47
2018-03-31T22:00:12.507Z,102.40
2018-03-31T22:02:39.468Z,103.10
2018-03-31T22:05:06.504Z,94.68
2018-03-31T22:07:32.711Z,133.90
2018-03-31T22:09:58.913Z,107.37
2018-03-31T22:12:25.116Z,78.10
2018-03-31T22:14:57.387Z,111.03
2018-03-31T22:17:23.570Z,114.65
2018-03-31T22:19:49.784Z,104.35
2018-03-31T22:22:16.057Z,110.75
2018-03-31T22:24:43.989Z,161.80
2018-03-31T22:27:10.215Z,106.68
2018-03-31T22:29:36.400Z,82.45
2018-03-31T22:32:02.658Z,78.50
2018-03-31T22:34:28.857Z,69.90
2018-03-31T22:36:55.066Z,67.03
2018-03-31T22:39:22.018Z,68.80
2018-03-31T22:41:48.236Z,72.55
2018-03-31T22:44:14.446Z,60.17
2018-03-31T22:46:41.370Z,69.60
2018-03-31T22:49:07.587Z,58.92
2018-03-31T22:51:33.791Z,63.47
2018-03-31T22:54:00.014Z,67.80
2018-03-31T22:56:26.254Z,79.00
2018-03-31T22:58:52.464Z,68.70
2018-03-31T23:01:20.471Z,68.22
2018-03-31T23:03:46.749Z,68.80
2018-03-31T23:06:12.961Z,62.20
2018-03-31T23:08:39.165Z,69.93
2018-03-31T23:11:05.381Z,62.95
2018-03-31T23:13:35.195Z,56.30
2018-03-31T23:16:01.391Z,59.80
2018-03-31T23:18:27.645Z,58.47
2018-03-31T23:20:53.867Z,60.78
2018-03-31T23:23:20.103Z,55.90
2018-03-31T23:25:46.308Z,55.38
2018-03-31T23:28:12.544Z,60.47
2018-03-31T23:30:38.750Z,57.13
2018-03-31T23:33:06.690Z,59.17
2018-03-31T23:35:32.889Z,60.97
2018-03-31T23:37:59.841Z,68.00
2018-03-31T23:40:26.062Z,59.28
2018-03-31T23:42:52.305Z,64.30
2018-03-31T23:45:18.605Z,59.83
2018-03-31T23:47:45.605Z,66.10
2018-03-31T23:50:11.937Z,63.85
2018-03-31T23:52:38.775Z,65.95
2018-03-31T23:55:05.055Z,63.53
2018-03-31T23:57:32.041Z,67.32
2018-03-31T23:59:58.374Z,62.37
